sensor_id;sensor_type;location;lat;lon;timestamp;P1;durP1;ratioP1;P2;durP2;ratioP2
9536;SDS011;4807;48.024;11.726;2022-08-03T00:00:00;1999.90;;;999.90;;
9536;SDS011;4807;48.024;11.726;2022-08-03T00:03:17;1999.90;;;999.90;;
9536;SDS011;4807;48.024;11.726;2022-08-03T00:06:26;1999.90;;;999.90;;
9536;SDS011;4807;48.024;11.726;2022-08-03T00:09:41;1999.90;;;999.90;;
9536;SDS011;4807;48.024;11.726;2022-08-03T00:12:53;1999.90;;;999.90;;
9536;SDS011;4807;48.024;11.726;2022-08-03T00:16:01;1999.90;;;999.90;;
9536;SDS011;4807;48.024;11.726;2022-08-03T00:19:10;1999.90;;;999.90;;
9536;SDS011;4807;48.024;11.726;2022-08-03T00:22:18;1999.90;;;999.90;;
9536;SDS011;4807;48.024;11.726;2022-08-03T00:25:29;1999.90;;;999.90;;
9536;SDS011;4807;48.024;11.726;2022-08-03T00:28:39;1999.90;;;999.90;;
9536;SDS011;4807;48.024;11.726;2022-08-03T00:31:47;1999.90;;;999.90;;
9536;SDS011;4807;48.024;11.726;2022-08-03T00:35:01;1999.90;;;999.90;;
9536;SDS011;4807;48.024;11.726;2022-08-03T00:38:15;1999.90;;;999.90;;
9536;SDS011;4807;48.024;11.726;2022-08-03T00:41:24;1999.90;;;999.90;;
9536;SDS011;4807;48.024;11.726;2022-08-03T00:44:39;1999.90;;;999.90;;
9536;SDS011;4807;48.024;11.726;2022-08-03T00:47:48;1999.90;;;999.90;;
9536;SDS011;4807;48.024;11.726;2022-08-03T00:50:57;1999.90;;;999.90;;
9536;SDS011;4807;48.024;11.726;2022-08-03T00:54:06;1999.90;;;999.90;;
9536;SDS011;4807;48.024;11.726;2022-08-03T00:57:14;1999.90;;;999.90;;
9536;SDS011;4807;48.024;11.726;2022-08-03T01:00:25;1999.90;;;999.90;;
9536;SDS011;4807;48.024;11.726;2022-08-03T01:03:34;1999.90;;;999.90;;
9536;SDS011;4807;48.024;11.726;2022-08-03T01:06:45;1999.90;;;999.90;;
9536;SDS011;4807;48.024;11.726;2022-08-03T01:10:02;1999.90;;;999.90;;
9536;SDS011;4807;48.024;11.726;2022-08-03T01:13:21;1999.90;;;999.90;;
9536;SDS011;4807;48.024;11.726;2022-08-03T01:17:01;1999.90;;;999.90;;
9536;SDS011;4807;48.024;11.726;2022-08-03T01:20:19;1999.90;;;999.90;;
9536;SDS011;4807;48.024;11.726;2022-08-03T01:23:36;1999.90;;;999.90;;
9536;SDS011;4807;48.024;11.726;2022-08-03T01:27:06;1999.90;;;999.90;;
9536;SDS011;4807;48.024;11.726;2022-08-03T01:30:22;1999.90;;;999.90;;
9536;SDS011;4807;48.024;11.726;2022-08-03T01:33:39;1999.90;;;999.90;;
9536;SDS011;4807;48.024;11.726;2022-08-03T01:36:53;1999.90;;;999.90;;
9536;SDS011;4807;48.024;11.726;2022-08-03T01:40:08;1999.90;;;999.90;;
9536;SDS011;4807;48.024;11.726;2022-08-03T01:43:22;1999.90;;;999.90;;
9536;SDS011;4807;48.024;11.726;2022-08-03T01:46:55;1999.90;;;999.90;;
9536;SDS011;4807;48.024;11.726;2022-08-03T01:50:07;1999.90;;;999.90;;
9536;SDS011;4807;48.024;11.726;2022-08-03T01:53:18;1999.90;;;999.90;;
9536;SDS011;4807;48.024;11.726;2022-08-03T01:56:29;1999.90;;;999.90;;
9536;SDS011;4807;48.024;11.726;2022-08-03T01:59:40;1999.90;;;999.90;;
9536;SDS011;4807;48.024;11.726;2022-08-03T02:02:52;1999.90;;;999.90;;
9536;SDS011;4807;48.024;11.726;2022-08-03T02:06:02;1999.90;;;999.90;;
9536;SDS011;4807;48.024;11.726;2022-08-03T02:09:36;1999.90;;;999.90;;
9536;SDS011;4807;48.024;11.726;2022-08-03T02:12:47;1999.90;;;999.90;;
9536;SDS011;4807;48.024;11.726;2022-08-03T02:15:57;1999.90;;;999.90;;
9536;SDS011;4807;48.024;11.726;2022-08-03T02:19:08;1999.90;;;999.90;;
9536;SDS011;4807;48.024;11.726;2022-08-03T02:22:18;1999.90;;;999.90;;
9536;SDS011;4807;48.024;11.726;2022-08-03T02:25:29;1999.90;;;999.90;;
9536;SDS011;4807;48.024;11.726;2022-08-03T02:28:40;1999.90;;;999.90;;
9536;SDS011;4807;48.024;11.726;2022-08-03T02:31:56;1999.90;;;999.90;;
9536;SDS011;4807;48.024;11.726;2022-08-03T02:35:12;1999.90;;;999.90;;
9536;SDS011;4807;48.024;11.726;2022-08-03T02:38:26;1999.90;;;999.90;;
9536;SDS011;4807;48.024;11.726;2022-08-03T02:41:40;1999.90;;;999.90;;
9536;SDS011;4807;48.024;11.726;2022-08-03T02:44:53;1999.90;;;999.90;;
9536;SDS011;4807;48.024;11.726;2022-08-03T02:48:06;1999.90;;;999.90;;
9536;SDS011;4807;48.024;11.726;2022-08-03T02:51:19;1058.07;;;999.90;;
9536;SDS011;4807;48.024;11.726;2022-08-03T02:54:44;8.30;;;8.00;;
9536;SDS011;4807;48.024;11.726;2022-08-03T02:57:56;14.13;;;13.67;;
9536;SDS011;4807;48.024;11.726;2022-08-03T03:01:07;10.80;;;10.40;;
9536;SDS011;4807;48.024;11.726;2022-08-03T03:04:16;11.07;;;10.77;;
9536;SDS011;4807;48.024;11.726;2022-08-03T03:07:32;10.87;;;10.47;;
9536;SDS011;4807;48.024;11.726;2022-08-03T03:10:58;4.03;;;3.93;;
9536;SDS011;4807;48.024;11.726;2022-08-03T03:14:08;4.37;;;4.27;;
9536;SDS011;4807;48.024;11.726;2022-08-03T03:17:19;3.93;;;3.83;;
9536;SDS011;4807;48.024;11.726;2022-08-03T03:20:30;5.10;;;4.90;;
9536;SDS011;4807;48.024;11.726;2022-08-03T03:23:42;4.50;;;4.30;;
9536;SDS011;4807;48.024;11.726;2022-08-03T03:26:51;1.10;;;1.10;;
9536;SDS011;4807;48.024;11.726;2022-08-03T03:30:00;2.70;;;2.60;;
9536;SDS011;4807;48.024;11.726;2022-08-03T03:33:09;2.03;;;1.93;;
9536;SDS011;4807;48.024;11.726;2022-08-03T03:36:19;13.77;;;13.27;;
9536;SDS011;4807;48.024;11.726;2022-08-03T03:39:29;5.50;;;5.17;;
9536;SDS011;4807;48.024;11.726;2022-08-03T03:42:38;6.80;;;6.50;;
9536;SDS011;4807;48.024;11.726;2022-08-03T03:45:46;24.77;;;23.93;;
9536;SDS011;4807;48.024;11.726;2022-08-03T03:48:56;31.93;;;30.80;;
9536;SDS011;4807;48.024;11.726;2022-08-03T03:52:05;1.30;;;1.30;;
9536;SDS011;4807;48.024;11.726;2022-08-03T03:55:16;1.70;;;1.60;;
9536;SDS011;4807;48.024;11.726;2022-08-03T03:58:25;9.77;;;9.17;;
9536;SDS011;4807;48.024;11.726;2022-08-03T04:01:33;8.90;;;8.60;;
9536;SDS011;4807;48.024;11.726;2022-08-03T04:04:41;4.57;;;4.37;;
9536;SDS011;4807;48.024;11.726;2022-08-03T04:08:16;2.60;;;2.50;;
9536;SDS011;4807;48.024;11.726;2022-08-03T04:11:46;17.97;;;17.37;;
9536;SDS011;4807;48.024;11.726;2022-08-03T04:14:59;805.37;;;784.33;;
9536;SDS011;4807;48.024;11.726;2022-08-03T04:18:10;481.40;;;468.37;;
9536;SDS011;4807;48.024;11.726;2022-08-03T04:21:24;823.10;;;801.63;;
9536;SDS011;4807;48.024;11.726;2022-08-03T04:24:37;1038.60;;;994.67;;
9536;SDS011;4807;48.024;11.726;2022-08-03T04:27:51;257.03;;;249.63;;
9536;SDS011;4807;48.024;11.726;2022-08-03T04:31:21;1999.90;;;999.90;;
9536;SDS011;4807;48.024;11.726;2022-08-03T04:34:32;1143.50;;;999.90;;
9536;SDS011;4807;48.024;11.726;2022-08-03T04:37:41;815.20;;;793.80;;
9536;SDS011;4807;48.024;11.726;2022-08-03T04:40:54;1999.90;;;999.90;;
9536;SDS011;4807;48.024;11.726;2022-08-03T04:44:05;1999.90;;;999.90;;
9536;SDS011;4807;48.024;11.726;2022-08-03T04:47:15;1999.90;;;999.90;;
9536;SDS011;4807;48.024;11.726;2022-08-03T04:50:24;1999.90;;;999.90;;
9536;SDS011;4807;48.024;11.726;2022-08-03T04:53:42;1999.90;;;999.90;;
9536;SDS011;4807;48.024;11.726;2022-08-03T04:56:50;1999.90;;;999.90;;
9536;SDS011;4807;48.024;11.726;2022-08-03T05:00:02;1999.90;;;999.90;;
9536;SDS011;4807;48.024;11.726;2022-08-03T05:03:12;1999.90;;;999.90;;
9536;SDS011;4807;48.024;11.726;2022-08-03T05:06:29;1999.90;;;999.90;;
9536;SDS011;4807;48.024;11.726;2022-08-03T05:09:38;1999.90;;;999.90;;
9536;SDS011;4807;48.024;11.726;2022-08-03T05:12:57;1999.90;;;999.90;;
9536;SDS011;4807;48.024;11.726;2022-08-03T05:16:07;1999.90;;;999.90;;
9536;SDS011;4807;48.024;11.726;2022-08-03T05:19:15;1999.90;;;999.90;;
9536;SDS011;4807;48.024;11.726;2022-08-03T05:22:23;1999.90;;;999.90;;
9536;SDS011;4807;48.024;11.726;2022-08-03T05:25:32;1999.90;;;999.90;;
9536;SDS011;4807;48.024;11.726;2022-08-03T05:28:40;1999.90;;;999.90;;
9536;SDS011;4807;48.024;11.726;2022-08-03T05:31:58;1999.90;;;999.90;;
9536;SDS011;4807;48.024;11.726;2022-08-03T05:35:13;1999.90;;;999.90;;
9536;SDS011;4807;48.024;11.726;2022-08-03T05:38:41;1999.90;;;999.90;;
9536;SDS011;4807;48.024;11.726;2022-08-03T05:41:49;1999.90;;;999.90;;
9536;SDS011;4807;48.024;11.726;2022-08-03T05:44:58;1999.90;;;999.90;;
9536;SDS011;4807;48.024;11.726;2022-08-03T05:48:19;1999.90;;;999.90;;
9536;SDS011;4807;48.024;11.726;2022-08-03T05:51:28;1999.90;;;999.90;;
9536;SDS011;4807;48.024;11.726;2022-08-03T05:54:36;1999.90;;;999.90;;
9536;SDS011;4807;48.024;11.726;2022-08-03T05:58:03;1999.90;;;999.90;;
9536;SDS011;4807;48.024;11.726;2022-08-03T06:01:11;1999.90;;;999.90;;
9536;SDS011;4807;48.024;11.726;2022-08-03T06:04:21;1999.90;;;999.90;;
9536;SDS011;4807;48.024;11.726;2022-08-03T06:07:30;1999.90;;;999.90;;
9536;SDS011;4807;48.024;11.726;2022-08-03T06:10:38;1999.90;;;999.90;;
9536;SDS011;4807;48.024;11.726;2022-08-03T06:13:46;1999.90;;;999.90;;
9536;SDS011;4807;48.024;11.726;2022-08-03T06:16:55;1999.90;;;999.90;;
9536;SDS011;4807;48.024;11.726;2022-08-03T06:20:05;1999.90;;;999.90;;
9536;SDS011;4807;48.024;11.726;2022-08-03T06:23:14;1999.90;;;999.90;;
9536;SDS011;4807;48.024;11.726;2022-08-03T06:26:24;1999.90;;;999.90;;
9536;SDS011;4807;48.024;11.726;2022-08-03T06:29:34;1999.90;;;999.90;;
9536;SDS011;4807;48.024;11.726;2022-08-03T06:32:42;1999.90;;;999.90;;
9536;SDS011;4807;48.024;11.726;2022-08-03T06:35:59;1999.90;;;999.90;;
9536;SDS011;4807;48.024;11.726;2022-08-03T06:39:07;1999.90;;;999.90;;
9536;SDS011;4807;48.024;11.726;2022-08-03T06:42:15;1999.90;;;999.90;;
9536;SDS011;4807;48.024;11.726;2022-08-03T06:45:26;1999.90;;;999.90;;
9536;SDS011;4807;48.024;11.726;2022-08-03T06:48:37;1999.90;;;999.90;;
9536;SDS011;4807;48.024;11.726;2022-08-03T06:51:47;1999.90;;;999.90;;
9536;SDS011;4807;48.024;11.726;2022-08-03T06:55:10;1999.90;;;999.90;;
9536;SDS011;4807;48.024;11.726;2022-08-03T06:58:18;1999.90;;;999.90;;
9536;SDS011;4807;48.024;11.726;2022-08-03T07:01:26;1999.90;;;999.90;;
9536;SDS011;4807;48.024;11.726;2022-08-03T07:04:34;1999.90;;;999.90;;
9536;SDS011;4807;48.024;11.726;2022-08-03T07:07:44;1999.90;;;999.90;;
9536;SDS011;4807;48.024;11.726;2022-08-03T07:10:52;1999.90;;;999.90;;
9536;SDS011;4807;48.024;11.726;2022-08-03T07:14:00;1999.90;;;999.90;;
9536;SDS011;4807;48.024;11.726;2022-08-03T07:17:09;1999.90;;;999.90;;
9536;SDS011;4807;48.024;11.726;2022-08-03T07:20:18;1999.90;;;999.90;;
9536;SDS011;4807;48.024;11.726;2022-08-03T07:23:28;1999.90;;;999.90;;
9536;SDS011;4807;48.024;11.726;2022-08-03T07:26:36;1999.90;;;999.90;;
9536;SDS011;4807;48.024;11.726;2022-08-03T07:29:44;1999.90;;;999.90;;
9536;SDS011;4807;48.024;11.726;2022-08-03T07:32:52;1999.90;;;999.90;;
9536;SDS011;4807;48.024;11.726;2022-08-03T07:36:01;1999.90;;;999.90;;
9536;SDS011;4807;48.024;11.726;2022-08-03T07:39:11;1999.90;;;999.90;;
9536;SDS011;4807;48.024;11.726;2022-08-03T07:42:23;1999.90;;;999.90;;
9536;SDS011;4807;48.024;11.726;2022-08-03T07:45:31;1999.90;;;999.90;;
9536;SDS011;4807;48.024;11.726;2022-08-03T07:48:40;1999.90;;;999.90;;
9536;SDS011;4807;48.024;11.726;2022-08-03T07:51:48;1999.90;;;999.90;;
9536;SDS011;4807;48.024;11.726;2022-08-03T07:55:18;1999.90;;;999.90;;
9536;SDS011;4807;48.024;11.726;2022-08-03T07:58:29;1999.90;;;999.90;;
9536;SDS011;4807;48.024;11.726;2022-08-03T08:01:37;1999.90;;;999.90;;
9536;SDS011;4807;48.024;11.726;2022-08-03T08:04:45;1999.90;;;999.90;;
9536;SDS011;4807;48.024;11.726;2022-08-03T08:07:54;1999.90;;;999.90;;
9536;SDS011;4807;48.024;11.726;2022-08-03T08:11:04;1999.90;;;999.90;;
9536;SDS011;4807;48.024;11.726;2022-08-03T08:14:12;1999.90;;;999.90;;
9536;SDS011;4807;48.024;11.726;2022-08-03T08:17:20;1999.90;;;999.90;;
9536;SDS011;4807;48.024;11.726;2022-08-03T08:20:29;1999.90;;;999.90;;
9536;SDS011;4807;48.024;11.726;2022-08-03T08:23:43;1999.90;;;999.90;;
9536;SDS011;4807;48.024;11.726;2022-08-03T08:27:03;1999.90;;;999.90;;
9536;SDS011;4807;48.024;11.726;2022-08-03T08:30:14;1999.90;;;999.90;;
9536;SDS011;4807;48.024;11.726;2022-08-03T08:33:25;1999.90;;;999.90;;
9536;SDS011;4807;48.024;11.726;2022-08-03T08:36:53;1999.90;;;999.90;;
9536;SDS011;4807;48.024;11.726;2022-08-03T08:40:01;1999.90;;;999.90;;
9536;SDS011;4807;48.024;11.726;2022-08-03T08:43:13;1999.90;;;999.90;;
9536;SDS011;4807;48.024;11.726;2022-08-03T08:46:21;1999.90;;;999.90;;
9536;SDS011;4807;48.024;11.726;2022-08-03T08:49:29;1999.90;;;999.90;;
9536;SDS011;4807;48.024;11.726;2022-08-03T08:52:42;1999.90;;;999.90;;
9536;SDS011;4807;48.024;11.726;2022-08-03T08:55:56;1999.90;;;999.90;;
9536;SDS011;4807;48.024;11.726;2022-08-03T08:59:09;1999.90;;;999.90;;
9536;SDS011;4807;48.024;11.726;2022-08-03T09:02:18;1999.90;;;999.90;;
9536;SDS011;4807;48.024;11.726;2022-08-03T09:05:27;1999.90;;;999.90;;
9536;SDS011;4807;48.024;11.726;2022-08-03T09:08:58;1999.90;;;999.90;;
9536;SDS011;4807;48.024;11.726;2022-08-03T09:12:06;1999.90;;;999.90;;
9536;SDS011;4807;48.024;11.726;2022-08-03T09:15:36;1999.90;;;999.90;;
9536;SDS011;4807;48.024;11.726;2022-08-03T09:19:02;1999.90;;;999.90;;
9536;SDS011;4807;48.024;11.726;2022-08-03T09:22:20;1999.90;;;999.90;;
9536;SDS011;4807;48.024;11.726;2022-08-03T09:25:29;1999.90;;;999.90;;
9536;SDS011;4807;48.024;11.726;2022-08-03T09:28:39;1999.90;;;999.90;;
9536;SDS011;4807;48.024;11.726;2022-08-03T09:32:08;1999.90;;;999.90;;
9536;SDS011;4807;48.024;11.726;2022-08-03T09:35:24;1999.90;;;999.90;;
9536;SDS011;4807;48.024;11.726;2022-08-03T09:38:59;1999.90;;;999.90;;
9536;SDS011;4807;48.024;11.726;2022-08-03T09:42:11;1999.90;;;999.90;;
9536;SDS011;4807;48.024;11.726;2022-08-03T09:45:26;1999.90;;;999.90;;
9536;SDS011;4807;48.024;11.726;2022-08-03T09:48:36;1999.90;;;999.90;;
9536;SDS011;4807;48.024;11.726;2022-08-03T09:51:44;1999.90;;;999.90;;
9536;SDS011;4807;48.024;11.726;2022-08-03T09:55:14;1999.90;;;999.90;;
9536;SDS011;4807;48.024;11.726;2022-08-03T09:58:43;1999.90;;;999.90;;
9536;SDS011;4807;48.024;11.726;2022-08-03T10:01:53;1999.90;;;999.90;;
9536;SDS011;4807;48.024;11.726;2022-08-03T10:05:05;1999.90;;;999.90;;
9536;SDS011;4807;48.024;11.726;2022-08-03T10:08:25;1999.90;;;999.90;;
9536;SDS011;4807;48.024;11.726;2022-08-03T10:11:33;1999.90;;;999.90;;
9536;SDS011;4807;48.024;11.726;2022-08-03T10:14:47;1999.90;;;999.90;;
9536;SDS011;4807;48.024;11.726;2022-08-03T10:17:56;1999.90;;;999.90;;
9536;SDS011;4807;48.024;11.726;2022-08-03T10:21:06;1999.90;;;999.90;;
9536;SDS011;4807;48.024;11.726;2022-08-03T10:24:23;1999.90;;;999.90;;
9536;SDS011;4807;48.024;11.726;2022-08-03T10:27:35;1999.90;;;999.90;;
9536;SDS011;4807;48.024;11.726;2022-08-03T10:30:47;1999.90;;;999.90;;
9536;SDS011;4807;48.024;11.726;2022-08-03T10:33:59;1999.90;;;999.90;;
9536;SDS011;4807;48.024;11.726;2022-08-03T10:37:14;1999.90;;;999.90;;
9536;SDS011;4807;48.024;11.726;2022-08-03T10:40:26;1999.90;;;999.90;;
9536;SDS011;4807;48.024;11.726;2022-08-03T10:43:56;1999.90;;;999.90;;
9536;SDS011;4807;48.024;11.726;2022-08-03T10:47:10;1999.90;;;999.90;;
9536;SDS011;4807;48.024;11.726;2022-08-03T10:50:19;1999.90;;;999.90;;
9536;SDS011;4807;48.024;11.726;2022-08-03T10:53:36;1999.90;;;999.90;;
9536;SDS011;4807;48.024;11.726;2022-08-03T10:56:53;1999.90;;;999.90;;
9536;SDS011;4807;48.024;11.726;2022-08-03T11:00:20;1999.90;;;999.90;;
9536;SDS011;4807;48.024;11.726;2022-08-03T11:03:30;1999.90;;;999.90;;
9536;SDS011;4807;48.024;11.726;2022-08-03T11:06:39;1999.90;;;999.90;;
9536;SDS011;4807;48.024;11.726;2022-08-03T11:09:49;1999.90;;;999.90;;
9536;SDS011;4807;48.024;11.726;2022-08-03T11:13:04;1999.90;;;999.90;;
9536;SDS011;4807;48.024;11.726;2022-08-03T11:16:17;1999.90;;;999.90;;
9536;SDS011;4807;48.024;11.726;2022-08-03T11:19:41;1999.90;;;999.90;;
9536;SDS011;4807;48.024;11.726;2022-08-03T11:23:03;1999.90;;;999.90;;
9536;SDS011;4807;48.024;11.726;2022-08-03T11:26:14;1999.90;;;999.90;;
9536;SDS011;4807;48.024;11.726;2022-08-03T11:29:26;1999.90;;;999.90;;
9536;SDS011;4807;48.024;11.726;2022-08-03T11:36:07;1999.90;;;999.90;;
9536;SDS011;4807;48.024;11.726;2022-08-03T11:39:15;1999.90;;;999.90;;
9536;SDS011;4807;48.024;11.726;2022-08-03T11:42:41;1999.90;;;999.90;;
9536;SDS011;4807;48.024;11.726;2022-08-03T11:45:57;1999.90;;;999.90;;
9536;SDS011;4807;48.024;11.726;2022-08-03T11:49:07;1999.90;;;999.90;;
9536;SDS011;4807;48.024;11.726;2022-08-03T11:52:18;1999.90;;;999.90;;
9536;SDS011;4807;48.024;11.726;2022-08-03T11:55:34;1999.90;;;999.90;;
9536;SDS011;4807;48.024;11.726;2022-08-03T11:58:50;1999.90;;;999.90;;
9536;SDS011;4807;48.024;11.726;2022-08-03T12:02:21;1999.90;;;999.90;;
9536;SDS011;4807;48.024;11.726;2022-08-03T12:05:40;1999.90;;;999.90;;
9536;SDS011;4807;48.024;11.726;2022-08-03T12:08:57;1999.90;;;999.90;;
9536;SDS011;4807;48.024;11.726;2022-08-03T12:12:06;1999.90;;;999.90;;
9536;SDS011;4807;48.024;11.726;2022-08-03T12:15:16;1999.90;;;999.90;;
9536;SDS011;4807;48.024;11.726;2022-08-03T12:18:31;1999.90;;;999.90;;
9536;SDS011;4807;48.024;11.726;2022-08-03T12:21:44;1999.90;;;999.90;;
9536;SDS011;4807;48.024;11.726;2022-08-03T12:25:02;1999.90;;;999.90;;
9536;SDS011;4807;48.024;11.726;2022-08-03T12:28:12;1999.90;;;999.90;;
9536;SDS011;4807;48.024;11.726;2022-08-03T12:31:44;1999.90;;;999.90;;
9536;SDS011;4807;48.024;11.726;2022-08-03T12:34:52;1999.90;;;999.90;;
9536;SDS011;4807;48.024;11.726;2022-08-03T12:38:05;1999.90;;;999.90;;
9536;SDS011;4807;48.024;11.726;2022-08-03T12:41:14;1999.90;;;999.90;;
9536;SDS011;4807;48.024;11.726;2022-08-03T12:47:53;1999.90;;;999.90;;
9536;SDS011;4807;48.024;11.726;2022-08-03T12:51:07;1999.90;;;999.90;;
9536;SDS011;4807;48.024;11.726;2022-08-03T12:54:18;1999.90;;;999.90;;
9536;SDS011;4807;48.024;11.726;2022-08-03T12:57:38;1999.90;;;999.90;;
9536;SDS011;4807;48.024;11.726;2022-08-03T13:00:53;1999.90;;;999.90;;
9536;SDS011;4807;48.024;11.726;2022-08-03T13:04:04;1999.90;;;999.90;;
9536;SDS011;4807;48.024;11.726;2022-08-03T13:07:13;1999.90;;;999.90;;
9536;SDS011;4807;48.024;11.726;2022-08-03T13:10:28;1999.90;;;999.90;;
9536;SDS011;4807;48.024;11.726;2022-08-03T13:13:38;1999.90;;;999.90;;
9536;SDS011;4807;48.024;11.726;2022-08-03T13:16:47;1999.90;;;999.90;;
9536;SDS011;4807;48.024;11.726;2022-08-03T13:19:56;1999.90;;;999.90;;
9536;SDS011;4807;48.024;11.726;2022-08-03T13:23:04;1999.90;;;999.90;;
9536;SDS011;4807;48.024;11.726;2022-08-03T13:26:20;1999.90;;;999.90;;
9536;SDS011;4807;48.024;11.726;2022-08-03T13:29:40;1999.90;;;999.90;;
9536;SDS011;4807;48.024;11.726;2022-08-03T13:32:49;1999.90;;;999.90;;
9536;SDS011;4807;48.024;11.726;2022-08-03T13:35:59;1999.90;;;999.90;;
9536;SDS011;4807;48.024;11.726;2022-08-03T13:39:07;1999.90;;;999.90;;
9536;SDS011;4807;48.024;11.726;2022-08-03T13:42:19;1999.90;;;999.90;;
9536;SDS011;4807;48.024;11.726;2022-08-03T13:45:28;1999.90;;;999.90;;
9536;SDS011;4807;48.024;11.726;2022-08-03T13:48:36;1999.90;;;999.90;;
9536;SDS011;4807;48.024;11.726;2022-08-03T13:51:46;1999.90;;;999.90;;
9536;SDS011;4807;48.024;11.726;2022-08-03T13:54:54;1999.90;;;999.90;;
9536;SDS011;4807;48.024;11.726;2022-08-03T13:58:02;1999.90;;;999.90;;
9536;SDS011;4807;48.024;11.726;2022-08-03T14:01:13;1999.90;;;999.90;;
9536;SDS011;4807;48.024;11.726;2022-08-03T14:04:21;1999.90;;;999.90;;
9536;SDS011;4807;48.024;11.726;2022-08-03T14:07:31;1999.90;;;999.90;;
9536;SDS011;4807;48.024;11.726;2022-08-03T14:10:40;1999.90;;;999.90;;
9536;SDS011;4807;48.024;11.726;2022-08-03T14:13:50;1999.90;;;999.90;;
9536;SDS011;4807;48.024;11.726;2022-08-03T14:16:58;1999.90;;;999.90;;
9536;SDS011;4807;48.024;11.726;2022-08-03T14:20:08;1999.90;;;999.90;;
9536;SDS011;4807;48.024;11.726;2022-08-03T14:23:39;1999.90;;;999.90;;
9536;SDS011;4807;48.024;11.726;2022-08-03T14:26:49;1999.90;;;999.90;;
9536;SDS011;4807;48.024;11.726;2022-08-03T14:29:58;1999.90;;;999.90;;
9536;SDS011;4807;48.024;11.726;2022-08-03T14:33:06;1999.90;;;999.90;;
9536;SDS011;4807;48.024;11.726;2022-08-03T14:36:14;1999.90;;;999.90;;
9536;SDS011;4807;48.024;11.726;2022-08-03T14:39:24;1999.90;;;999.90;;
9536;SDS011;4807;48.024;11.726;2022-08-03T14:42:52;1999.90;;;999.90;;
9536;SDS011;4807;48.024;11.726;2022-08-03T14:46:01;1999.90;;;999.90;;
9536;SDS011;4807;48.024;11.726;2022-08-03T14:49:09;1999.90;;;999.90;;
9536;SDS011;4807;48.024;11.726;2022-08-03T14:52:38;1999.90;;;999.90;;
9536;SDS011;4807;48.024;11.726;2022-08-03T14:55:47;1999.90;;;999.90;;
9536;SDS011;4807;48.024;11.726;2022-08-03T14:58:58;1999.90;;;999.90;;
9536;SDS011;4807;48.024;11.726;2022-08-03T15:02:07;1999.90;;;999.90;;
9536;SDS011;4807;48.024;11.726;2022-08-03T15:05:26;1999.90;;;999.90;;
9536;SDS011;4807;48.024;11.726;2022-08-03T15:08:35;1999.90;;;999.90;;
9536;SDS011;4807;48.024;11.726;2022-08-03T15:11:46;1999.90;;;999.90;;
9536;SDS011;4807;48.024;11.726;2022-08-03T15:14:56;1999.90;;;999.90;;
9536;SDS011;4807;48.024;11.726;2022-08-03T15:18:05;1999.90;;;999.90;;
9536;SDS011;4807;48.024;11.726;2022-08-03T15:21:13;1999.90;;;999.90;;
9536;SDS011;4807;48.024;11.726;2022-08-03T15:24:42;1999.90;;;999.90;;
9536;SDS011;4807;48.024;11.726;2022-08-03T15:27:52;1999.90;;;999.90;;
9536;SDS011;4807;48.024;11.726;2022-08-03T15:31:09;1999.90;;;999.90;;
9536;SDS011;4807;48.024;11.726;2022-08-03T15:34:24;1999.90;;;999.90;;
9536;SDS011;4807;48.024;11.726;2022-08-03T15:37:32;1999.90;;;999.90;;
9536;SDS011;4807;48.024;11.726;2022-08-03T15:40:40;1999.90;;;999.90;;
9536;SDS011;4807;48.024;11.726;2022-08-03T15:43:50;1999.90;;;999.90;;
9536;SDS011;4807;48.024;11.726;2022-08-03T15:46:58;1999.90;;;999.90;;
9536;SDS011;4807;48.024;11.726;2022-08-03T15:50:07;1999.90;;;999.90;;
9536;SDS011;4807;48.024;11.726;2022-08-03T15:53:17;1999.90;;;999.90;;
9536;SDS011;4807;48.024;11.726;2022-08-03T15:56:25;1999.90;;;999.90;;
9536;SDS011;4807;48.024;11.726;2022-08-03T15:59:35;1999.90;;;999.90;;
9536;SDS011;4807;48.024;11.726;2022-08-03T16:02:43;1999.90;;;999.90;;
9536;SDS011;4807;48.024;11.726;2022-08-03T16:06:01;1999.90;;;999.90;;
9536;SDS011;4807;48.024;11.726;2022-08-03T16:09:11;1999.90;;;999.90;;
9536;SDS011;4807;48.024;11.726;2022-08-03T16:12:39;1999.90;;;999.90;;
9536;SDS011;4807;48.024;11.726;2022-08-03T16:15:49;1999.90;;;999.90;;
9536;SDS011;4807;48.024;11.726;2022-08-03T16:18:58;1999.90;;;999.90;;
9536;SDS011;4807;48.024;11.726;2022-08-03T16:22:11;1999.90;;;999.90;;
9536;SDS011;4807;48.024;11.726;2022-08-03T16:25:19;1999.90;;;999.90;;
9536;SDS011;4807;48.024;11.726;2022-08-03T16:28:28;1999.90;;;999.90;;
9536;SDS011;4807;48.024;11.726;2022-08-03T16:31:40;1999.90;;;999.90;;
9536;SDS011;4807;48.024;11.726;2022-08-03T16:34:56;1999.90;;;999.90;;
9536;SDS011;4807;48.024;11.726;2022-08-03T16:38:05;1999.90;;;999.90;;
9536;SDS011;4807;48.024;11.726;2022-08-03T16:41:17;1999.90;;;999.90;;
9536;SDS011;4807;48.024;11.726;2022-08-03T16:44:26;1999.90;;;999.90;;
9536;SDS011;4807;48.024;11.726;2022-08-03T16:47:37;1999.90;;;999.90;;
9536;SDS011;4807;48.024;11.726;2022-08-03T16:50:46;1999.90;;;999.90;;
9536;SDS011;4807;48.024;11.726;2022-08-03T16:53:59;1999.90;;;999.90;;
9536;SDS011;4807;48.024;11.726;2022-08-03T16:57:13;1999.90;;;999.90;;
9536;SDS011;4807;48.024;11.726;2022-08-03T17:00:41;1999.90;;;999.90;;
9536;SDS011;4807;48.024;11.726;2022-08-03T17:03:53;1999.90;;;999.90;;
9536;SDS011;4807;48.024;11.726;2022-08-03T17:07:10;1999.90;;;999.90;;
9536;SDS011;4807;48.024;11.726;2022-08-03T17:10:22;1999.90;;;999.90;;
9536;SDS011;4807;48.024;11.726;2022-08-03T17:13:32;1999.90;;;999.90;;
9536;SDS011;4807;48.024;11.726;2022-08-03T17:16:45;1999.90;;;999.90;;
9536;SDS011;4807;48.024;11.726;2022-08-03T17:20:00;1999.90;;;999.90;;
9536;SDS011;4807;48.024;11.726;2022-08-03T17:23:20;1999.90;;;999.90;;
9536;SDS011;4807;48.024;11.726;2022-08-03T17:26:46;1999.90;;;999.90;;
9536;SDS011;4807;48.024;11.726;2022-08-03T17:29:58;1999.90;;;999.90;;
9536;SDS011;4807;48.024;11.726;2022-08-03T17:33:13;1999.90;;;999.90;;
9536;SDS011;4807;48.024;11.726;2022-08-03T17:36:27;1999.90;;;999.90;;
9536;SDS011;4807;48.024;11.726;2022-08-03T17:39:56;1999.90;;;999.90;;
9536;SDS011;4807;48.024;11.726;2022-08-03T17:43:10;1999.90;;;999.90;;
9536;SDS011;4807;48.024;11.726;2022-08-03T17:46:42;1999.90;;;999.90;;
9536;SDS011;4807;48.024;11.726;2022-08-03T17:49:53;1999.90;;;999.90;;
9536;SDS011;4807;48.024;11.726;2022-08-03T17:53:04;1999.90;;;999.90;;
9536;SDS011;4807;48.024;11.726;2022-08-03T17:56:32;1999.90;;;999.90;;
9536;SDS011;4807;48.024;11.726;2022-08-03T17:59:54;1999.90;;;999.90;;
9536;SDS011;4807;48.024;11.726;2022-08-03T18:03:36;1999.90;;;999.90;;
9536;SDS011;4807;48.024;11.726;2022-08-03T18:07:04;1999.90;;;999.90;;
9536;SDS011;4807;48.024;11.726;2022-08-03T18:10:20;1999.90;;;999.90;;
9536;SDS011;4807;48.024;11.726;2022-08-03T18:13:37;1999.90;;;999.90;;
9536;SDS011;4807;48.024;11.726;2022-08-03T18:17:04;1999.90;;;999.90;;
9536;SDS011;4807;48.024;11.726;2022-08-03T18:20:16;1999.90;;;999.90;;
9536;SDS011;4807;48.024;11.726;2022-08-03T18:23:46;1999.90;;;999.90;;
9536;SDS011;4807;48.024;11.726;2022-08-03T18:26:57;1999.90;;;999.90;;
9536;SDS011;4807;48.024;11.726;2022-08-03T18:30:09;1999.90;;;999.90;;